Time;durP1;ratioP1;P1;durP2;ratioP2;P2;SDS_P1;SDS_P2;PMS_P1;PMS_P2;Temp;Humidity;BMP_temperature;BMP_pressure;BME280_temperature;BME280_humidity;BME280_pressure;Samples;Min_cycle;Max_cycle;Signal;HPM_P1;HPM_P2
2021/11/29 00:00:16;;;;;;;11.77;4.93;;;;;;;14.93;71.94;98220.66;5091115;28;20059;-20
2021/11/29 00:02:41;;;;;;;11.98;4.95;;;;;;;15.02;71.80;98213.56;5090557;28;20500;-21
2021/11/29 00:05:07;;;;;;;10.57;3.83;;;;;;;14.93;71.61;98213.41;5072249;28;20040;-20
2021/11/29 00:07:33;;;;;;;9.20;3.10;;;;;;;14.98;71.39;98191.09;5090561;28;20046;-20
2021/11/29 00:09:58;;;;;;;12.52;4.22;;;;;;;15.13;70.89;98188.13;5090432;28;20043;-20
2021/11/29 00:12:24;;;;;;;13.90;4.30;;;;;;;15.05;71.32;98191.47;5090736;28;20027;-21
2021/11/29 00:14:49;;;;;;;19.23;5.25;;;;;;;15.30;70.31;98178.72;5090739;28;20081;-20
2021/11/29 00:17:15;;;;;;;14.35;5.07;;;;;;;15.29;69.91;98161.03;5090199;28;20494;-20
2021/11/29 00:19:41;;;;;;;13.82;4.07;;;;;;;15.46;69.64;98194.25;5090532;28;20032;-20
2021/11/29 00:22:06;;;;;;;12.43;3.42;;;;;;;15.40;69.39;98182.00;5090602;28;20461;-20
2021/11/29 00:24:32;;;;;;;9.95;2.97;;;;;;;15.48;69.55;98188.59;5090147;28;20027;-20
2021/11/29 00:26:57;;;;;;;16.55;3.67;;;;;;;15.51;68.88;98179.94;5090397;28;20028;-20
2021/11/29 00:29:22;;;;;;;12.90;4.47;;;;;;;15.58;68.27;98188.41;5071785;28;20475;-21
2021/11/29 00:31:48;;;;;;;13.98;5.07;;;;;;;15.61;68.12;98182.44;5090290;28;20028;-21
2021/11/29 00:34:13;;;;;;;16.80;7.45;;;;;;;15.54;68.24;98186.59;5090367;28;20773;-20
2021/11/29 00:36:39;;;;;;;17.50;6.18;;;;;;;15.44;68.71;98185.69;5090232;28;20077;-20
2021/11/29 00:39:04;;;;;;;21.33;8.32;;;;;;;15.51;68.04;98174.56;5089586;28;20510;-20
2021/11/29 00:41:30;;;;;;;19.20;7.20;;;;;;;15.41;69.79;98172.88;5089990;28;20056;-20
2021/11/29 00:43:55;;;;;;;20.25;7.07;;;;;;;15.29;71.17;98161.03;5089960;28;20043;-20
2021/11/29 00:46:21;;;;;;;17.23;5.38;;;;;;;15.00;72.82;98127.16;5090094;28;20483;-20
2021/11/29 00:48:46;;;;;;;20.65;5.82;;;;;;;15.17;73.02;98156.91;5089820;28;20423;-20
2021/11/29 00:51:12;;;;;;;19.90;7.20;;;;;;;15.24;73.09;98159.19;5089636;28;20066;-20
2021/11/29 00:53:37;;;;;;;18.65;5.55;;;;;;;15.12;73.88;98138.22;5089196;28;20028;-20
2021/11/29 00:56:03;;;;;;;35.97;15.48;;;;;;;14.98;74.70;98115.91;5089938;28;20036;-20
2021/11/29 00:58:28;;;;;;;54.20;24.90;;;;;;;15.14;74.84;98130.66;5089879;28;20027;-21
2021/11/29 01:00:54;;;;;;;18.02;5.45;;;;;;;15.14;75.44;98135.22;5089696;28;20028;-20
2021/11/29 01:03:19;;;;;;;16.02;6.80;;;;;;;15.21;76.09;98114.16;5089078;28;20457;-20
2021/11/29 01:05:45;;;;;;;17.40;6.57;;;;;;;15.21;76.30;98076.56;5089889;28;20058;-21
2021/11/29 01:08:10;;;;;;;19.17;5.05;;;;;;;15.06;78.32;98083.03;5089595;28;20070;-20
2021/11/29 01:10:36;;;;;;;12.82;4.25;;;;;;;15.04;77.87;98067.22;5089518;28;20039;-20
2021/11/29 01:13:01;;;;;;;16.10;4.43;;;;;;;15.32;77.09;98077.16;5089039;28;20031;-21
2021/11/29 01:15:29;;;;;;;11.65;4.32;;;;;;;15.42;76.29;98063.53;5071532;28;20032;-21
2021/11/29 01:17:55;;;;;;;14.63;5.25;;;;;;;15.25;77.09;98067.63;5089244;28;20020;-20
2021/11/29 01:20:20;;;;;;;13.05;5.22;;;;;;;15.19;78.12;98063.44;5089299;28;20457;-20
2021/11/29 01:22:46;;;;;;;10.13;3.72;;;;;;;14.79;80.38;98065.78;5089084;28;20031;-20
2021/11/29 01:25:12;;;;;;;11.23;3.60;;;;;;;14.65;80.63;98059.59;5088793;28;20028;-20
2021/11/29 01:27:38;;;;;;;10.00;3.55;;;;;;;14.14;83.42;98055.00;5089153;28;20032;-20
2021/11/29 01:30:04;;;;;;;22.88;7.82;;;;;;;14.19;83.79;98065.66;5089136;28;20032;-20
2021/11/29 01:32:30;;;;;;;93.50;24.95;;;;;;;14.16;83.97;98066.22;5088778;28;20024;-20
2021/11/29 01:34:55;;;;;;;17.70;5.90;;;;;;;14.26;83.63;98068.75;5088996;28;20089;-20
2021/11/29 01:37:21;;;;;;;14.10;4.35;;;;;;;14.27;83.30;98057.75;5088688;28;20031;-20
2021/11/29 01:39:46;;;;;;;24.35;7.30;;;;;;;14.27;82.88;98051.59;5071259;28;20039;-20
2021/11/29 01:42:11;;;;;;;27.80;10.10;;;;;;;14.17;83.16;98038.34;5088421;28;20052;-20
2021/11/29 01:44:37;;;;;;;17.08;4.97;;;;;;;14.16;82.45;98024.16;5088697;28;20032;-20
2021/11/29 01:47:04;;;;;;;13.82;4.30;;;;;;;14.34;81.59;98011.00;5088733;28;20043;-22
2021/11/29 01:49:29;;;;;;;9.07;3.80;;;;;;;14.34;81.01;98022.50;5088852;28;20630;-21
2021/11/29 01:51:55;;;;;;;12.25;3.60;;;;;;;14.01;82.30;98009.09;5088814;28;20198;-20
2021/11/29 01:54:20;;;;;;;17.75;4.90;;;;;;;14.01;82.42;98003.72;5088587;28;20395;-20
2021/11/29 01:56:46;;;;;;;12.93;4.00;;;;;;;13.97;82.41;97992.00;5088551;28;20032;-20
2021/11/29 01:59:11;;;;;;;19.48;5.65;;;;;;;14.24;80.83;97991.31;5088285;28;20024;-21
2021/11/29 02:01:37;;;;;;;24.00;6.38;;;;;;;13.99;82.12;97984.47;5088255;28;20044;-20
2021/11/29 02:04:03;;;;;;;14.80;4.35;;;;;;;14.07;81.41;97991.84;5087740;28;20452;-20
2021/11/29 02:06:29;;;;;;;17.92;5.10;;;;;;;13.94;81.68;98005.22;5088506;28;20032;-20
2021/11/29 02:08:55;;;;;;;18.05;4.68;;;;;;;14.12;80.37;98006.25;5088341;28;20032;-20
2021/11/29 02:11:21;;;;;;;20.00;5.93;;;;;;;14.20;80.23;97984.97;5088195;28;20028;-20
2021/11/29 02:13:47;;;;;;;25.73;6.82;;;;;;;13.94;81.52;97979.19;5088584;28;20027;-21
2021/11/29 02:16:12;;;;;;;18.58;5.97;;;;;;;13.73;82.33;97977.91;5088219;28;20040;-20
2021/11/29 02:18:40;;;;;;;25.98;7.53;;;;;;;13.85;81.78;97978.25;5088397;28;20070;-20
2021/11/29 02:21:13;;;;;;;;;;;;;;;13.88;81.47;97979.56;5088368;28;20039;-20
2021/11/29 02:23:40;;;;;;;23.55;6.85;;;;;;;13.94;80.52;97949.72;5088236;28;19912;-20
2021/11/29 02:26:06;;;;;;;25.10;6.13;;;;;;;13.87;80.94;97949.28;5088120;28;20085;-20
2021/11/29 02:28:33;;;;;;;34.22;12.52;;;;;;;13.70;81.42;97959.75;5087900;28;20040;-21
2021/11/29 02:30:58;;;;;;;27.58;9.70;;;;;;;13.93;80.86;97952.69;5087929;28;20116;-20
2021/11/29 02:33:26;;;;;;;25.33;7.78;;;;;;;13.94;80.23;97939.00;5087990;28;20483;-20
2021/11/29 02:35:51;;;;;;;21.30;6.68;;;;;;;14.13;79.59;97930.13;5088061;28;20028;-20
2021/11/29 02:38:16;;;;;;;27.85;7.82;;;;;;;14.04;79.76;97941.53;5088238;28;20084;-20
2021/11/29 02:40:42;;;;;;;22.70;7.60;;;;;;;13.83;80.50;97934.88;5088213;28;20076;-20
2021/11/29 02:43:07;;;;;;;24.40;8.10;;;;;;;14.21;79.22;97921.41;5087225;28;20097;-20
2021/11/29 02:45:33;;;;;;;28.70;8.93;;;;;;;14.39;78.10;97901.78;5087777;28;20024;-20
2021/11/29 02:47:58;;;;;;;23.10;6.97;;;;;;;14.52;77.46;97910.13;5088264;28;20047;-21
2021/11/29 02:50:24;;;;;;;23.08;6.95;;;;;;;13.92;78.98;97908.25;5087628;28;20027;-22
2021/11/29 02:52:49;;;;;;;28.08;6.88;;;;;;;13.65;79.88;97883.75;5070328;28;20062;-21
2021/11/29 02:55:15;;;;;;;24.52;6.63;;;;;;;13.73;79.58;97894.88;5088005;28;20036;-21
2021/11/29 02:57:40;;;;;;;27.60;7.78;;;;;;;13.64;80.15;97882.13;5087848;28;20060;-20
2021/11/29 03:00:07;;;;;;;18.58;5.82;;;;;;;13.48;80.45;97875.44;5087725;28;20039;-20
2021/11/29 03:02:33;;;;;;;20.55;6.35;;;;;;;13.66;79.42;97858.53;5087508;28;20032;-20
2021/11/29 03:04:59;;;;;;;25.73;7.57;;;;;;;13.47;79.93;97849.75;5087481;28;20034;-20
2021/11/29 03:07:24;;;;;;;22.67;8.40;;;;;;;13.60;79.87;97843.63;5087762;28;20032;-20
2021/11/29 03:09:50;;;;;;;27.98;11.35;;;;;;;13.39;80.12;97816.41;5087812;28;20678;-20
2021/11/29 03:12:16;;;;;;;35.17;14.85;;;;;;;13.47;79.96;97825.66;5087516;28;20032;-20
2021/11/29 03:14:41;;;;;;;26.38;9.32;;;;;;;13.61;80.36;97855.97;5087698;28;20032;-20
2021/11/29 03:17:07;;;;;;;32.35;9.20;;;;;;;13.76;79.18;97840.72;5073253;28;20077;-20
2021/11/29 03:19:34;;;;;;;29.92;7.82;;;;;;;13.61;79.63;97842.56;5091627;28;20496;-20
2021/11/29 03:22:00;;;;;;;29.85;7.60;;;;;;;13.89;78.72;97850.66;5091494;28;20475;-20
2021/11/29 03:24:25;;;;;;;21.85;6.30;;;;;;;14.29;77.12;97844.88;5091600;28;20114;-20
2021/11/29 03:26:51;;;;;;;23.75;6.90;;;;;;;14.19;77.15;97837.81;5091370;28;20036;-20
2021/11/29 03:29:17;;;;;;;26.23;6.88;;;;;;;14.25;76.98;97842.78;5091465;28;20047;-21
2021/11/29 03:31:43;;;;;;;31.52;8.32;;;;;;;14.45;76.22;97851.53;5091248;28;20115;-21
2021/11/29 03:34:11;;;;;;;28.35;10.40;;;;;;;14.30;76.66;97849.13;5091283;28;20028;-21
2021/11/29 03:36:39;;;;;;;25.75;7.75;;;;;;;14.58;75.42;97849.94;5091360;28;20028;-21
2021/11/29 03:39:07;;;;;;;18.45;7.53;;;;;;;14.14;76.41;97825.31;5090840;28;20407;-21
2021/11/29 03:41:32;;;;;;;29.48;9.88;;;;;;;13.93;77.90;97854.34;5090880;28;20487;-20
2021/11/29 03:43:58;;;;;;;32.20;10.00;;;;;;;14.15;77.16;97832.25;5091082;28;20039;-20
2021/11/29 03:46:24;;;;;;;25.73;9.00;;;;;;;13.95;78.75;97833.41;5091341;28;20110;-20
2021/11/29 03:48:49;;;;;;;30.33;10.10;;;;;;;13.84;79.43;97824.75;5091231;28;20036;-20
2021/11/29 03:51:14;;;;;;;24.20;7.57;;;;;;;13.80;79.46;97831.00;5090902;28;20032;-21
2021/11/29 03:53:40;;;;;;;29.00;6.28;;;;;;;13.81;79.61;97837.94;5091206;28;20502;-20
2021/11/29 03:56:05;;;;;;;21.02;5.93;;;;;;;13.69;78.37;97825.03;5090995;28;20032;-20
2021/11/29 03:58:31;;;;;;;22.13;5.90;;;;;;;13.72;78.14;97819.06;5072799;28;20067;-20
2021/11/29 04:00:56;;;;;;;23.17;5.97;;;;;;;13.95;76.89;97813.84;5072714;28;20028;-21
2021/11/29 04:03:22;;;;;;;22.85;6.80;;;;;;;14.10;76.23;97823.50;5090472;28;20032;-20
2021/11/29 04:05:47;;;;;;;23.08;6.18;;;;;;;13.97;76.64;97817.81;5090745;28;20062;-20
2021/11/29 04:08:13;;;;;;;21.30;5.35;;;;;;;13.99;75.71;97812.16;5090534;28;20028;-20
2021/11/29 04:10:38;;;;;;;20.73;4.78;;;;;;;13.64;76.44;97811.72;5090744;28;20113;-20
2021/11/29 04:13:04;;;;;;;26.60;9.13;;;;;;;13.51;77.16;97805.25;5090792;28;20377;-20
2021/11/29 04:15:29;;;;;;;24.55;7.55;;;;;;;13.60;76.97;97800.78;5090499;28;20437;-21
2021/11/29 04:17:55;;;;;;;22.60;6.80;;;;;;;13.56;77.46;97799.78;5090463;28;20028;-21
2021/11/29 04:20:20;;;;;;;29.00;7.55;;;;;;;13.57;77.52;97777.28;5090839;28;20036;-20
2021/11/29 04:22:46;;;;;;;28.73;6.13;;;;;;;13.57;77.44;97782.66;5072537;28;20121;-20
2021/11/29 04:25:14;;;;;;;28.52;6.38;;;;;;;13.70;76.78;97773.03;5090160;28;20125;-21
2021/11/29 04:27:41;;;;;;;29.30;8.40;;;;;;;13.68;77.96;97774.44;5089588;28;20067;-20
2021/11/29 04:30:12;;;;;;;40.17;10.10;;;;;;;13.73;79.07;97798.44;5089802;28;20040;-20
2021/11/29 04:32:38;;;;;;;39.10;8.82;;;;;;;13.78;78.92;97769.69;5088497;28;20024;-20
2021/11/29 04:35:04;;;;;;;30.38;9.52;;;;;;;13.79;79.08;97786.53;5090209;28;20369;-21
2021/11/29 04:37:29;;;;;;;38.00;13.95;;;;;;;13.81;78.24;97757.56;5090187;28;20032;-21
2021/11/29 04:39:55;;;;;;;124.53;57.38;;;;;;;13.76;78.67;97760.34;5090225;28;20147;-20
2021/11/29 04:42:20;;;;;;;40.78;10.88;;;;;;;13.78;78.61;97750.16;5089777;28;20044;-20
2021/11/29 04:44:46;;;;;;;40.28;11.10;;;;;;;13.89;78.20;97743.50;5089836;28;20032;-20
2021/11/29 04:47:11;;;;;;;41.00;11.70;;;;;;;14.06;77.60;97754.41;5089472;28;20031;-20
2021/11/29 04:49:37;;;;;;;39.53;9.57;;;;;;;14.13;77.55;97763.94;5090140;28;20035;-20
2021/11/29 04:52:03;;;;;;;49.13;11.70;;;;;;;14.22;77.07;97764.81;5089919;28;20036;-20
2021/11/29 04:54:28;;;;;;;34.70;10.00;;;;;;;14.44;76.14;97769.47;5089745;28;20466;-20
2021/11/29 04:56:54;;;;;;;33.42;7.93;;;;;;;14.43;76.19;97779.41;5089881;28;20081;-20
2021/11/29 04:59:19;;;;;;;41.42;11.77;;;;;;;14.57;75.37;97759.88;5089689;28;20085;-21
2021/11/29 05:01:44;;;;;;;47.83;8.95;;;;;;;14.64;74.77;97762.91;5089675;28;20035;-20
2021/11/29 05:04:10;;;;;;;42.38;8.73;;;;;;;14.61;74.59;97776.94;5089624;28;20020;-20
2021/11/29 05:06:37;;;;;;;36.00;9.55;;;;;;;14.51;74.02;97774.44;5089676;28;20480;-20
2021/11/29 05:09:09;;;;;;;45.05;9.60;;;;;;;14.26;73.97;97763.13;5089357;28;20939;-20
2021/11/29 05:11:34;;;;;;;38.33;9.48;;;;;;;14.36;73.39;97781.69;5089592;28;20036;-20
2021/11/29 05:14:00;;;;;;;35.63;8.93;;;;;;;13.63;75.05;97765.41;5089194;28;20029;-21
2021/11/29 05:16:25;;;;;;;37.92;8.60;;;;;;;13.75;75.01;97772.16;5089454;28;20388;-20
2021/11/29 05:18:51;;;;;;;34.00;8.00;;;;;;;13.02;76.81;97774.41;5089667;28;20028;-20
2021/11/29 05:21:16;;;;;;;50.95;13.57;;;;;;;12.77;79.23;97752.31;5089091;28;20380;-20
2021/11/29 05:23:42;;;;;;;39.85;8.98;;;;;;;12.75;78.89;97765.16;5070912;28;20047;-21
2021/11/29 05:26:07;;;;;;;33.75;8.45;;;;;;;13.09;78.01;97788.19;5089476;28;20590;-20
2021/11/29 05:28:33;;;;;;;37.00;9.70;;;;;;;13.05;78.15;97787.97;5088855;28;20024;-21
2021/11/29 05:30:58;;;;;;;25.80;7.25;;;;;;;12.75;78.11;97794.59;5089196;28;20431;-20
2021/11/29 05:33:24;;;;;;;33.95;8.55;;;;;;;12.35;79.96;97804.72;5088898;28;20385;-20
2021/11/29 05:35:49;;;;;;;25.50;7.45;;;;;;;12.32;79.19;97783.91;5088994;28;20041;-21
2021/11/29 05:38:14;;;;;;;25.67;7.80;;;;;;;12.51;78.81;97791.94;5088811;28;20038;-21
2021/11/29 05:40:40;;;;;;;23.58;9.45;;;;;;;12.49;78.44;97796.78;5070487;28;20035;-21
2021/11/29 05:43:05;;;;;;;27.13;9.25;;;;;;;12.29;78.74;97800.50;5088397;28;20055;-21
2021/11/29 05:45:31;;;;;;;24.60;8.23;;;;;;;12.20;78.34;97810.25;5088527;28;20488;-21
2021/11/29 05:47:56;;;;;;;22.80;7.55;;;;;;;12.24;78.10;97805.91;5088934;28;20031;-20
2021/11/29 05:50:22;;;;;;;19.20;8.23;;;;;;;12.09;78.49;97806.88;5088779;28;20092;-20
2021/11/29 05:52:47;;;;;;;24.60;9.55;;;;;;;12.10;77.61;97821.03;5088593;28;20051;-21
2021/11/29 05:55:13;;;;;;;24.88;8.50;;;;;;;11.69;79.41;97814.19;5088592;28;20031;-21
2021/11/29 05:57:39;;;;;;;26.20;9.55;;;;;;;11.79;78.71;97807.94;5070461;28;20028;-22
2021/11/29 06:00:10;;;;;;;21.02;9.88;;;;;;;11.69;78.99;97800.84;5088857;28;20028;-21
2021/11/29 06:02:38;;;;;;;24.90;11.02;;;;;;;11.54;79.51;97801.75;5088386;28;20028;-21
2021/11/29 06:05:04;;;;;;;21.48;8.45;;;;;;;11.74;77.83;97816.00;5088341;28;20027;-20
2021/11/29 06:07:29;;;;;;;23.05;9.15;;;;;;;11.59;77.51;97812.41;5088529;28;20092;-21
2021/11/29 06:09:55;;;;;;;23.38;8.95;;;;;;;11.25;77.92;97812.41;5088512;28;20551;-22
2021/11/29 06:12:20;;;;;;;26.42;12.43;;;;;;;11.07;78.21;97821.88;5088349;28;20112;-21
2021/11/29 06:14:45;;;;;;;19.67;11.35;;;;;;;10.98;78.69;97836.88;5088587;28;20097;-21
2021/11/29 06:17:11;;;;;;;17.95;10.82;;;;;;;10.71;79.06;97850.63;5088083;28;20036;-20
2021/11/29 06:19:36;;;;;;;29.55;17.73;;;;;;;10.10;80.69;97843.59;5088180;28;20407;-20
2021/11/29 06:22:02;;;;;;;31.77;16.58;;;;;;;9.60;84.48;97865.50;5088049;28;20112;-20
2021/11/29 06:24:27;;;;;;;19.73;10.75;;;;;;;9.72;85.57;97885.69;5087988;28;20035;-20
2021/11/29 06:26:53;;;;;;;25.30;12.20;;;;;;;9.88;86.00;97876.63;5088059;28;20039;-20
2021/11/29 06:29:18;;;;;;;21.48;13.32;;;;;;;9.79;86.27;97896.91;5088039;28;20028;-20
2021/11/29 06:31:44;;;;;;;29.60;15.40;;;;;;;9.76;86.26;97889.44;5088216;28;20036;-20
2021/11/29 06:34:09;;;;;;;30.48;16.00;;;;;;;9.69;86.85;97902.22;5088095;28;20028;-20
2021/11/29 06:36:35;;;;;;;29.80;16.92;;;;;;;9.77;86.78;97909.66;5087987;28;20415;-20
2021/11/29 06:39:00;;;;;;;27.13;14.88;;;;;;;10.12;85.82;97908.06;5087432;28;20454;-21
2021/11/29 06:41:26;;;;;;;24.50;12.27;;;;;;;10.41;83.99;97902.94;5087719;28;20585;-22
2021/11/29 06:43:51;;;;;;;18.60;11.15;;;;;;;10.38;83.43;97914.97;5087813;28;20032;-20
2021/11/29 06:46:17;;;;;;;20.40;11.63;;;;;;;10.36;83.54;97919.75;5087852;28;20035;-20
2021/11/29 06:48:42;;;;;;;19.35;10.25;;;;;;;10.43;82.90;97924.78;5087955;28;20031;-20
2021/11/29 06:51:08;;;;;;;23.55;11.80;;;;;;;10.48;83.50;97934.63;5086987;28;20036;-20
2021/11/29 06:53:34;;;;;;;26.05;14.02;;;;;;;10.58;82.76;97918.63;5069976;28;20407;-20
2021/11/29 06:56:00;;;;;;;21.15;12.27;;;;;;;10.82;82.17;97934.81;5069536;28;20403;-20
2021/11/29 06:58:26;;;;;;;20.05;10.68;;;;;;;10.91;81.54;97948.38;5087397;28;20032;-21
2021/11/29 07:00:51;;;;;;;24.70;12.80;;;;;;;11.08;81.72;97932.84;5087657;28;20032;-20
2021/11/29 07:03:17;;;;;;;23.63;12.55;;;;;;;11.20;81.28;97954.66;5087345;28;20028;-21
2021/11/29 07:05:43;;;;;;;20.70;11.43;;;;;;;11.31;80.66;97915.34;5087703;28;20085;-20
2021/11/29 07:08:08;;;;;;;20.70;11.07;;;;;;;11.52;80.02;97952.59;5087528;28;20035;-20
2021/11/29 07:10:34;;;;;;;20.83;11.00;;;;;;;11.42;80.54;97970.28;5087490;28;20032;-22
2021/11/29 07:12:59;;;;;;;20.42;10.80;;;;;;;11.04;81.53;97969.91;5087191;28;20498;-22
2021/11/29 07:15:25;;;;;;;19.50;10.50;;;;;;;11.02;81.49;97932.06;5069650;28;20036;-20
2021/11/29 07:17:51;;;;;;;18.95;10.15;;;;;;;11.39;80.70;97967.34;5087504;28;20028;-20
2021/11/29 07:20:17;;;;;;;20.05;10.65;;;;;;;11.29;81.06;97949.53;5087756;28;20038;-21
2021/11/29 07:22:43;;;;;;;19.67;11.20;;;;;;;11.32;80.96;97932.97;5087251;28;20457;-21
2021/11/29 07:25:09;;;;;;;18.33;10.95;;;;;;;11.79;80.53;97923.59;5087258;28;20115;-21
2021/11/29 07:27:34;;;;;;;18.92;10.65;;;;;;;11.98;79.27;97934.41;5087512;28;20071;-20
2021/11/29 07:30:01;;;;;;;17.30;9.98;;;;;;;11.91;80.00;97933.94;5087504;28;20479;-21
2021/11/29 07:32:29;;;;;;;16.33;9.48;;;;;;;12.04;79.72;97917.25;5087344;28;20035;-22
2021/11/29 07:34:54;;;;;;;15.15;9.07;;;;;;;12.43;78.32;97924.38;5087211;28;20028;-21
2021/11/29 07:37:20;;;;;;;13.43;8.15;;;;;;;12.65;77.47;97936.44;5087422;28;20028;-20
2021/11/29 07:39:46;;;;;;;17.15;7.90;;;;;;;12.95;77.17;97915.75;5087177;28;20032;-21
2021/11/29 07:42:11;;;;;;;15.45;9.15;;;;;;;13.12;75.17;97905.38;5087282;28;20052;-20
2021/11/29 07:44:37;;;;;;;15.57;8.43;;;;;;;13.34;75.16;97952.22;5087536;28;20468;-20
2021/11/29 07:47:03;;;;;;;15.68;7.72;;;;;;;13.25;74.43;97922.59;5086922;28;20040;-20
2021/11/29 07:49:28;;;;;;;13.98;7.68;;;;;;;13.64;73.54;97935.69;5087126;28;20495;-20
2021/11/29 07:51:54;;;;;;;17.42;8.02;;;;;;;13.86;72.97;97932.44;5087246;28;20101;-20
2021/11/29 07:54:20;;;;;;;14.32;8.23;;;;;;;13.76;72.46;97937.16;5087353;28;20028;-20
2021/11/29 07:56:45;;;;;;;15.27;7.63;;;;;;;13.91;72.21;97944.94;5068897;28;20043;-20
2021/11/29 07:59:10;;;;;;;18.33;7.60;;;;;;;13.91;72.57;97966.38;5086968;28;20495;-21
2021/11/29 08:01:36;;;;;;;13.73;7.00;;;;;;;14.07;72.28;97954.31;5087291;28;20427;-21
2021/11/29 08:04:01;;;;;;;15.88;7.60;;;;;;;14.21;72.51;97967.75;5090489;28;20032;-20
2021/11/29 08:06:27;;;;;;;15.02;7.90;;;;;;;14.03;72.48;97966.72;5090780;28;20415;-21
2021/11/29 08:08:53;;;;;;;14.30;7.43;;;;;;;14.05;72.79;97966.44;5090907;28;20559;-20
2021/11/29 08:11:18;;;;;;;14.52;7.80;;;;;;;14.15;72.76;97944.03;5090542;28;20036;-20
2021/11/29 08:13:44;;;;;;;17.80;8.45;;;;;;;14.61;71.26;97962.03;5090493;28;20085;-20
2021/11/29 08:16:09;;;;;;;17.65;7.38;;;;;;;14.54;70.67;97961.59;5090579;28;20078;-21
2021/11/29 08:18:35;;;;;;;13.73;7.00;;;;;;;14.71;71.01;97956.47;5090384;28;20032;-21
2021/11/29 08:21:00;;;;;;;14.80;6.30;;;;;;;15.20;69.50;97973.75;5090232;28;20032;-21
2021/11/29 08:23:25;;;;;;;14.25;6.93;;;;;;;15.19;69.04;97985.56;5090530;28;20036;-21
2021/11/29 08:25:51;;;;;;;16.08;6.45;;;;;;;15.29;69.49;97994.53;5090270;28;20031;-20
2021/11/29 08:28:16;;;;;;;11.43;6.28;;;;;;;15.48;68.34;97985.22;5090358;28;20036;-20
2021/11/29 08:30:42;;;;;;;11.73;5.50;;;;;;;15.60;68.42;97984.69;5090339;28;20031;-20
2021/11/29 08:33:07;;;;;;;13.80;5.43;;;;;;;15.83;67.14;97987.44;5089995;28;20043;-20
2021/11/29 08:35:33;;;;;;;15.20;5.63;;;;;;;15.95;66.91;97981.53;5090222;28;20036;-21
2021/11/29 08:37:59;;;;;;;11.90;6.30;;;;;;;16.14;65.94;97962.53;5090094;28;20043;-20
2021/11/29 08:40:27;;;;;;;11.38;5.30;;;;;;;16.41;65.73;97977.72;5089949;28;20032;-22
2021/11/29 08:43:01;;;;;;;11.55;5.88;;;;;;;16.85;64.68;97958.00;5089732;28;20055;-21
2021/11/29 08:45:28;;;;;;;11.60;5.05;;;;;;;17.20;63.29;97982.34;5089980;28;20051;-20
2021/11/29 08:47:54;;;;;;;13.65;5.65;;;;;;;17.37;61.75;97991.59;5089993;28;20047;-21
2021/11/29 08:50:19;;;;;;;12.10;5.72;;;;;;;17.17;62.44;97956.03;5089842;28;20490;-21
2021/11/29 08:52:45;;;;;;;15.05;6.70;;;;;;;16.85;64.93;97963.38;5089856;28;20043;-21
2021/11/29 08:55:10;;;;;;;13.32;5.88;;;;;;;16.73;64.16;97954.28;5089668;28;20373;-20
2021/11/29 08:57:36;;;;;;;13.55;7.20;;;;;;;16.89;64.98;97950.09;5089936;28;20060;-21
2021/11/29 09:00:07;;;;;;;13.48;6.05;;;;;;;16.82;64.91;97955.94;5090058;28;20062;-20
2021/11/29 09:02:33;;;;;;;11.77;5.53;;;;;;;16.48;66.35;98000.38;5089837;28;20100;-20
2021/11/29 09:04:58;;;;;;;14.15;6.10;;;;;;;16.25;67.26;97999.63;5089947;28;20511;-20
2021/11/29 09:07:24;;;;;;;13.73;5.93;;;;;;;15.82;70.01;98053.84;5089843;28;20040;-21
2021/11/29 09:09:50;;;;;;;19.00;7.43;;;;;;;15.05;77.43;97984.78;5089623;28;20055;-21
2021/11/29 09:12:16;;;;;;;12.98;5.88;;;;;;;14.88;78.43;98011.44;5089635;28;20036;-20
2021/11/29 09:14:41;;;;;;;14.70;5.82;;;;;;;14.49;80.16;98009.97;5089341;28;20408;-20
2021/11/29 09:17:07;;;;;;;11.98;5.82;;;;;;;14.24;82.12;98033.41;5089431;28;20038;-20
2021/11/29 09:19:32;;;;;;;10.48;5.68;;;;;;;14.32;81.94;98030.06;5089456;28;20476;-20
2021/11/29 09:21:58;;;;;;;13.02;6.28;;;;;;;14.11;84.22;98028.78;5089285;28;20101;-20
2021/11/29 09:24:23;;;;;;;14.35;5.45;;;;;;;13.90;85.12;98017.59;5089104;28;20031;-20
2021/11/29 09:26:49;;;;;;;11.23;4.90;;;;;;;13.71;87.13;98020.25;5089361;28;20036;-21
2021/11/29 09:29:14;;;;;;;12.57;5.00;;;;;;;13.66;86.17;98018.44;5089190;28;20369;-21
2021/11/29 09:31:40;;;;;;;13.93;5.30;;;;;;;13.76;86.53;98033.59;5088952;28;20028;-21
2021/11/29 09:34:05;;;;;;;15.77;6.28;;;;;;;13.85;86.28;98039.88;5089226;28;20479;-20
2021/11/29 09:36:31;;;;;;;10.43;5.25;;;;;;;14.11;85.53;98044.88;5089053;28;20039;-20
2021/11/29 09:38:56;;;;;;;14.48;6.22;;;;;;;14.05;85.37;98041.47;5088870;28;20522;-21
2021/11/29 09:41:24;;;;;;;12.18;7.30;;;;;;;14.02;85.78;98056.25;5088551;28;20464;-22
2021/11/29 09:43:51;;;;;;;11.70;4.95;;;;;;;13.89;86.50;98059.66;5088803;28;20060;-21
2021/11/29 09:46:16;;;;;;;13.02;4.80;;;;;;;13.94;86.44;98075.66;5089004;28;20075;-21
2021/11/29 09:48:42;;;;;;;11.57;5.20;;;;;;;13.56;86.89;98089.00;5088779;28;20036;-21
2021/11/29 09:51:07;;;;;;;12.18;5.65;;;;;;;13.54;88.22;98101.09;5088670;28;20028;-21
2021/11/29 09:53:33;;;;;;;11.48;5.68;;;;;;;13.74;88.03;98097.38;5088841;28;20028;-21
2021/11/29 09:56:01;;;;;;;10.10;5.45;;;;;;;13.77;87.51;98068.13;5088976;28;20031;-21
2021/11/29 09:58:28;;;;;;;12.23;5.70;;;;;;;13.99;87.80;98080.16;5088732;28;20550;-21
2021/11/29 10:00:55;;;;;;;10.10;5.13;;;;;;;14.30;85.42;98080.50;5088918;28;20064;-21
2021/11/29 10:03:21;;;;;;;12.80;4.78;;;;;;;14.71;81.01;98071.03;5070220;28;20490;-21
2021/11/29 10:05:47;;;;;;;10.10;4.95;;;;;;;14.76;82.50;98055.63;5070639;28;20070;-21
2021/11/29 10:08:30;;;;;;;9.75;4.13;;;;;;;15.06;77.27;98065.03;5088818;28;20036;-21
2021/11/29 10:10:58;;;;;;;9.68;4.00;;;;;;;15.25;75.47;98056.88;5088448;28;20038;-21
2021/11/29 10:13:24;;;;;;;8.35;4.45;;;;;;;15.64;73.76;98074.34;5087951;28;20029;-21
2021/11/29 10:15:50;;;;;;;6.28;3.00;;;;;;;15.87;69.91;98082.50;5088436;28;20032;-21
2021/11/29 10:18:22;;;;;;;7.85;2.40;;;;;;;16.24;66.37;98081.41;5088583;28;20036;-20
2021/11/29 10:21:06;;;;;;;4.50;1.92;;;;;;;16.55;63.63;98104.09;5088673;28;20097;-21
2021/11/29 10:23:31;;;;;;;4.60;1.90;;;;;;;16.40;59.41;98119.50;5087925;28;20115;-20
2021/11/29 10:25:57;;;;;;;4.88;1.80;;;;;;;16.44;59.73;98108.94;5087649;28;20111;-20
2021/11/29 10:28:36;;;;;;;2.47;1.20;;;;;;;16.53;55.06;98111.69;5088280;28;20062;-20
2021/11/29 10:31:11;;;;;;;1.60;0.90;;;;;;;16.54;52.20;98105.22;5087951;28;20020;-20
2021/11/29 10:33:54;;;;;;;2.15;0.80;;;;;;;16.39;52.83;98064.13;5087991;28;20385;-20
2021/11/29 10:36:20;;;;;;;3.40;0.88;;;;;;;16.80;50.35;98071.19;5088293;28;20024;-20
2021/11/29 10:38:52;;;;;;;1.75;0.85;;;;;;;16.81;51.48;98094.31;5088219;28;20043;-21
2021/11/29 10:41:27;;;;;;;3.10;0.88;;;;;;;16.82;46.62;98104.00;5088075;28;20111;-21
2021/11/29 10:43:52;;;;;;;1.10;0.73;;;;;;;17.05;46.81;98093.97;5088001;28;20048;-20
2021/11/29 10:46:25;;;;;;;2.53;0.70;;;;;;;16.84;47.49;98109.88;5087771;28;20063;-20
2021/11/29 10:48:51;;;;;;;2.47;0.70;;;;;;;16.68;47.15;98076.34;5088444;28;20036;-20
2021/11/29 10:51:17;;;;;;;4.47;1.10;;;;;;;16.58;46.25;98087.34;5087462;28;20115;-20
2021/11/29 10:53:49;;;;;;;4.07;1.30;;;;;;;16.50;46.82;98093.47;5069600;28;20039;-21
2021/11/29 10:56:14;;;;;;;10.43;2.42;;;;;;;16.23;45.81;98073.66;5088023;28;20031;-20
2021/11/29 10:58:41;;;;;;;2.55;1.00;;;;;;;16.07;46.94;98081.25;5087800;28;20060;-20
2021/11/29 11:01:06;;;;;;;3.03;0.80;;;;;;;16.21;47.11;98048.94;5087475;28;20113;-20
2021/11/29 11:03:54;;;;;;;2.88;0.70;;;;;;;16.68;45.55;98050.19;5087671;28;20032;-20
2021/11/29 11:06:30;;;;;;;1.70;0.82;;;;;;;16.89;46.69;98063.16;5087576;28;20482;-20
2021/11/29 11:08:56;;;;;;;3.28;1.25;;;;;;;17.01;46.24;98041.84;5087794;28;20059;-20
2021/11/29 11:11:37;;;;;;;2.92;1.10;;;;;;;17.43;43.08;98063.06;5087340;28;20483;-21
2021/11/29 11:14:11;;;;;;;1.52;0.43;;;;;;;17.51;42.08;98046.13;5087885;28;20023;-20
2021/11/29 11:16:45;;;;;;;0.75;0.32;;;;;;;17.77;41.70;98050.75;5087842;28;20082;-20
2021/11/29 11:19:21;;;;;;;0.75;0.47;;;;;;;17.83;38.93;98038.75;5087554;28;20024;-20